VIAR/ATQ METAR and TAF weather

Enter ICAO airport designator
Station Type Date Time Source
VIAR METAR 2019/08/26 07:30 UTC NOAA

VIAR 260730Z VRB04KT 6000 FEW040 SCT100 33/25 Q1006 NOSIG


Station Type Date Time Source
VIAR Decoded METAR 2019/08/26 07:30 UTC NOAA

Station name not available
Aug 26, 2019 - 03:30 AM EDT / 2019.08.26 0730 UTC
Wind: Variable at 5 MPH (4 KT):0
Visibility: 3 mile(s):0
Sky conditions: partly cloudy
Temperature: 91 F (33 C)
Heat index: 103.5 F (39.7 C):1
Dew Point: 77 F (25 C)
Relative Humidity: 62%
Pressure (altimeter): 29.71 in. Hg (1006 hPa)
ob: VIAR 260730Z VRB04KT 6000 FEW040 SCT100 33/25 Q1006 NOSIG
cycle: 7

Station Type Date Time Source
VIAR TAF 2019/08/26 06:33 UTC NOAA

TAF TAF VIAR 260500Z 2606/2712 09003KT 5000 HZ SCT100
BECMG 2612/2614 07003KT 3000 HZ BR SCT030 BKN100
BECMG 2700/2702 VRB02KT 2500 BR
BECMG 2703/2705 13006KT 3500 HZ -RA SCT035 BKN090
TEMPO 2706/2710 FEW040CB

Example: see airport list